createdAt,value
2018-07-31T00:01:32.910Z,20.51
2018-07-31T00:04:01.520Z,20.52
2018-07-31T00:06:30.064Z,20.47
2018-07-31T00:08:58.524Z,20.68
2018-07-31T00:11:26.966Z,20.61
2018-07-31T00:13:55.430Z,20.36
2018-07-31T00:16:23.865Z,20.38
2018-07-31T00:18:52.612Z,20.34
2018-07-31T00:21:21.043Z,20.28
2018-07-31T00:23:49.519Z,20.23
2018-07-31T00:26:17.994Z,20.12
2018-07-31T00:28:46.500Z,20.09
2018-07-31T00:31:15.059Z,20.02
2018-07-31T00:33:43.991Z,19.99
2018-07-31T00:36:12.432Z,20.00
2018-07-31T00:38:40.889Z,19.98
2018-07-31T00:41:09.377Z,19.95
2018-07-31T00:43:37.828Z,19.98
2018-07-31T00:46:06.294Z,20.00
2018-07-31T00:48:34.799Z,19.82
2018-07-31T00:51:03.405Z,19.87
2018-07-31T00:53:32.015Z,19.80
2018-07-31T00:56:01.530Z,19.82
2018-07-31T00:58:29.978Z,19.59
2018-07-31T01:00:58.451Z,19.46
2018-07-31T01:03:26.952Z,19.73
2018-07-31T01:05:55.472Z,19.76
2018-07-31T01:08:23.923Z,19.80
2018-07-31T01:10:52.557Z,19.65
2018-07-31T01:13:21.047Z,19.43
2018-07-31T01:15:49.588Z,19.48
2018-07-31T01:18:18.020Z,19.44
2018-07-31T01:20:48.939Z,19.47
2018-07-31T01:23:19.041Z,19.47
2018-07-31T01:25:47.800Z,19.37
2018-07-31T01:28:16.302Z,19.39
2018-07-31T01:30:46.608Z,19.41
2018-07-31T01:33:15.061Z,19.32
2018-07-31T01:35:43.540Z,19.39
2018-07-31T01:38:12.785Z,18.52
2018-07-31T01:40:41.324Z,19.54
2018-07-31T01:43:10.316Z,19.34
2018-07-31T01:45:38.907Z,19.29
2018-07-31T01:48:08.031Z,19.12
2018-07-31T01:50:36.502Z,19.06
2018-07-31T01:53:04.959Z,19.20
2018-07-31T01:55:33.447Z,19.14
2018-07-31T01:58:02.347Z,19.02
2018-07-31T02:00:31.722Z,19.02
2018-07-31T02:03:00.582Z,19.03
2018-07-31T02:05:29.816Z,19.16
2018-07-31T02:07:59.563Z,19.19
2018-07-31T02:10:28.299Z,19.15
2018-07-31T02:12:56.799Z,19.07
2018-07-31T02:15:25.296Z,18.86
2018-07-31T02:17:53.784Z,18.86
2018-07-31T02:20:22.234Z,18.83
2018-07-31T02:22:51.008Z,18.82
2018-07-31T02:25:19.451Z,18.80
2018-07-31T02:27:48.176Z,18.78
2018-07-31T02:30:23.412Z,18.77
2018-07-31T02:32:53.052Z,18.78
2018-07-31T02:35:21.557Z,18.75
2018-07-31T02:37:50.050Z,18.70
2018-07-31T02:40:19.187Z,18.71
2018-07-31T02:42:47.676Z,18.62
2018-07-31T02:45:16.163Z,18.60
2018-07-31T02:47:46.398Z,18.64
2018-07-31T02:50:14.844Z,18.51
2018-07-31T02:52:43.321Z,18.52
2018-07-31T02:55:12.768Z,18.50
2018-07-31T02:57:41.606Z,18.52
2018-07-31T03:00:11.088Z,18.51
2018-07-31T03:02:40.511Z,18.47
2018-07-31T03:05:10.772Z,18.39
2018-07-31T03:07:40.202Z,18.39
2018-07-31T03:10:09.911Z,18.41
2018-07-31T03:12:38.377Z,18.43
2018-07-31T03:15:08.366Z,18.35
2018-07-31T03:17:36.974Z,18.14
2018-07-31T03:20:06.403Z,18.30
2018-07-31T03:22:35.044Z,18.36
2018-07-31T03:25:04.151Z,18.42
2018-07-31T03:27:32.571Z,18.40
2018-07-31T03:30:01.654Z,18.23
2018-07-31T03:32:30.304Z,18.18
2018-07-31T03:34:58.947Z,18.19
2018-07-31T03:37:27.590Z,18.10
2018-07-31T03:39:56.623Z,18.14
2018-07-31T03:42:26.883Z,18.14
2018-07-31T03:44:55.722Z,18.16
2018-07-31T03:47:24.509Z,18.00
2018-07-31T03:49:53.623Z,17.73
2018-07-31T03:52:23.140Z,17.80
2018-07-31T03:54:52.500Z,17.53
2018-07-31T03:57:23.389Z,17.75
2018-07-31T03:59:52.930Z,17.90
2018-07-31T04:02:22.778Z,17.99
2018-07-31T04:04:51.707Z,17.94
2018-07-31T04:07:21.312Z,17.92
2018-07-31T04:09:51.829Z,17.76
2018-07-31T04:12:21.086Z,17.89
2018-07-31T04:14:50.600Z,17.96
2018-07-31T04:17:19.492Z,18.12
2018-07-31T04:19:49.135Z,18.14
2018-07-31T04:22:18.063Z,18.15
2018-07-31T04:24:48.930Z,18.23
2018-07-31T04:27:18.616Z,18.21
2018-07-31T04:29:48.426Z,18.13
2018-07-31T04:32:17.176Z,17.88
2018-07-31T04:34:46.384Z,17.72
2018-07-31T04:37:15.029Z,17.74
2018-07-31T04:39:43.592Z,17.68
2018-07-31T04:42:12.183Z,18.14
2018-07-31T04:44:41.855Z,18.63
2018-07-31T04:47:11.007Z,18.79
2018-07-31T04:49:39.526Z,18.72
2018-07-31T04:52:08.115Z,18.80
2018-07-31T04:54:36.688Z,19.03
2018-07-31T04:57:05.786Z,19.22
2018-07-31T04:59:34.892Z,19.13
2018-07-31T05:02:03.493Z,18.85
2018-07-31T05:04:32.736Z,18.72
2018-07-31T05:07:01.223Z,18.92
2018-07-31T05:09:29.772Z,18.89
2018-07-31T05:11:59.097Z,18.97
2018-07-31T05:14:27.555Z,19.09
2018-07-31T05:16:56.177Z,19.22
2018-07-31T05:19:25.060Z,19.64
2018-07-31T05:21:53.960Z,19.80
2018-07-31T05:24:22.452Z,20.01
2018-07-31T05:26:50.932Z,19.64
2018-07-31T05:29:19.462Z,19.95
2018-07-31T05:31:48.024Z,20.21
2018-07-31T05:34:16.612Z,20.70
2018-07-31T05:36:45.833Z,20.81
2018-07-31T05:41:58.058Z,21.27
2018-07-31T05:44:26.607Z,21.13
2018-07-31T05:46:55.755Z,21.65
2018-07-31T05:49:24.653Z,21.51
2018-07-31T05:51:53.276Z,21.63
2018-07-31T05:54:21.788Z,21.81
2018-07-31T05:56:50.773Z,21.91
2018-07-31T05:59:19.257Z,22.40
2018-07-31T06:01:48.223Z,23.17
2018-07-31T06:04:16.692Z,23.00
2018-07-31T06:06:45.198Z,23.23
2018-07-31T06:09:13.729Z,23.54
2018-07-31T06:11:42.208Z,22.84
2018-07-31T06:14:11.693Z,23.40
2018-07-31T06:16:40.203Z,23.58
2018-07-31T06:19:09.175Z,24.98
2018-07-31T06:21:38.116Z,26.00
2018-07-31T06:24:07.661Z,26.13
2018-07-31T06:26:36.172Z,26.73
2018-07-31T06:29:04.685Z,26.45
2018-07-31T06:31:33.303Z,25.64
2018-07-31T06:34:01.815Z,25.35
2018-07-31T06:36:30.328Z,25.83
2018-07-31T06:38:58.808Z,26.30
2018-07-31T06:41:28.824Z,25.31
2018-07-31T06:43:58.050Z,25.44
2018-07-31T06:46:26.499Z,25.58
2018-07-31T06:48:55.073Z,26.08
2018-07-31T06:51:23.570Z,26.53
2018-07-31T06:53:52.107Z,26.18
2018-07-31T06:56:20.638Z,26.74
2018-07-31T06:58:49.281Z,28.13
2018-07-31T07:01:17.767Z,29.14
2018-07-31T07:03:46.203Z,28.56
2018-07-31T07:06:14.916Z,28.40
2018-07-31T07:08:43.392Z,28.04
2018-07-31T07:11:11.905Z,27.87
2018-07-31T07:13:40.389Z,27.57
2018-07-31T07:16:08.894Z,27.20
2018-07-31T07:18:37.857Z,27.39
2018-07-31T07:21:07.246Z,27.53
2018-07-31T07:23:36.498Z,27.67
2018-07-31T07:26:05.263Z,27.67
2018-07-31T07:28:33.775Z,27.87
2018-07-31T07:31:02.298Z,27.82
2018-07-31T07:33:30.860Z,28.29
2018-07-31T07:35:59.307Z,28.20
2018-07-31T07:38:28.244Z,28.46
2018-07-31T07:40:56.782Z,29.52
2018-07-31T07:43:26.049Z,30.26
2018-07-31T07:45:55.127Z,30.72
2018-07-31T07:48:23.632Z,31.41
2018-07-31T07:50:52.102Z,30.68
2018-07-31T07:53:20.615Z,30.98
2018-07-31T07:55:49.241Z,30.79
2018-07-31T07:58:17.997Z,32.38
2018-07-31T08:00:47.705Z,32.42
2018-07-31T08:03:16.368Z,32.24
2018-07-31T08:05:44.960Z,33.11
2018-07-31T08:08:13.429Z,33.71
2018-07-31T08:10:43.521Z,34.74
2018-07-31T08:13:13.478Z,34.26
2018-07-31T08:15:42.750Z,35.11
2018-07-31T08:18:12.337Z,34.82
2018-07-31T08:20:40.828Z,33.21
2018-07-31T08:23:09.386Z,32.79
2018-07-31T08:25:37.905Z,34.12
2018-07-31T08:28:06.663Z,34.96
2018-07-31T08:30:35.161Z,35.86
2018-07-31T08:33:03.711Z,34.94
2018-07-31T08:35:33.608Z,36.51
2018-07-31T08:38:02.149Z,34.54
2018-07-31T08:40:31.396Z,35.60
2018-07-31T08:43:00.267Z,35.28
2018-07-31T08:45:29.594Z,34.77
2018-07-31T08:47:58.388Z,35.50
2018-07-31T08:50:27.531Z,35.84
2018-07-31T08:52:57.161Z,35.27
2018-07-31T08:55:25.720Z,35.83
2018-07-31T08:57:54.303Z,34.38
2018-07-31T09:00:23.658Z,35.41
2018-07-31T09:02:52.251Z,36.81
2018-07-31T09:05:20.800Z,37.82
2018-07-31T09:07:49.406Z,37.07
2018-07-31T09:10:19.817Z,35.88
2018-07-31T09:12:49.270Z,37.72
2018-07-31T09:15:17.823Z,36.95
2018-07-31T09:17:46.321Z,37.50
2018-07-31T09:20:15.640Z,38.81
2018-07-31T09:22:44.332Z,39.33
2018-07-31T09:25:13.473Z,39.09
2018-07-31T09:27:42.272Z,38.49
2018-07-31T09:30:10.895Z,36.55
2018-07-31T09:32:44.601Z,37.12
2018-07-31T09:35:13.598Z,38.47
2018-07-31T09:37:42.329Z,36.81
2018-07-31T09:40:11.571Z,37.66
2018-07-31T09:42:40.599Z,36.83
2018-07-31T09:45:09.356Z,38.48
2018-07-31T09:47:38.335Z,38.81
2018-07-31T09:50:07.222Z,38.13
2018-07-31T09:52:36.191Z,37.16
2018-07-31T09:55:05.076Z,36.71
2018-07-31T09:57:35.584Z,37.58
2018-07-31T10:00:05.757Z,39.19
2018-07-31T10:02:34.423Z,38.31
2018-07-31T10:05:03.234Z,37.02
2018-07-31T10:07:32.020Z,37.82
2018-07-31T10:10:00.725Z,37.58
2018-07-31T10:12:29.718Z,36.76
2018-07-31T10:14:59.142Z,37.01
2018-07-31T10:17:28.451Z,37.40
2018-07-31T10:19:57.236Z,37.14
2018-07-31T10:22:26.010Z,36.36
2018-07-31T10:24:55.358Z,36.47
2018-07-31T10:29:53.273Z,35.76
2018-07-31T10:32:22.262Z,35.80
2018-07-31T10:34:51.667Z,35.74
2018-07-31T10:37:20.715Z,35.70
2018-07-31T10:39:49.745Z,35.53
2018-07-31T10:42:19.895Z,36.13
2018-07-31T10:44:49.273Z,38.46
2018-07-31T10:47:18.436Z,38.75
2018-07-31T10:49:48.040Z,39.09
2018-07-31T10:52:16.957Z,39.10
2018-07-31T10:54:46.653Z,37.64
2018-07-31T10:57:15.448Z,35.83
2018-07-31T10:59:45.986Z,36.67
2018-07-31T11:02:14.920Z,36.41
2018-07-31T11:04:43.945Z,35.85
2018-07-31T11:07:12.899Z,35.83
2018-07-31T11:09:41.907Z,36.34
2018-07-31T11:12:11.373Z,38.31
2018-07-31T11:14:40.582Z,36.76
2018-07-31T11:17:09.716Z,36.66
2018-07-31T11:19:39.624Z,35.68
2018-07-31T11:22:09.457Z,36.30
2018-07-31T11:24:38.754Z,35.55
2018-07-31T11:27:08.590Z,36.04
2018-07-31T11:29:38.209Z,35.82
2018-07-31T11:32:08.815Z,36.09
2018-07-31T11:34:38.384Z,37.11
2018-07-31T11:37:07.915Z,36.68
2018-07-31T11:39:38.262Z,37.46
2018-07-31T11:42:08.287Z,36.55
2018-07-31T11:44:37.379Z,37.38
2018-07-31T11:47:06.587Z,37.43
2018-07-31T11:49:35.674Z,38.21
2018-07-31T11:52:04.643Z,38.57
2018-07-31T11:54:34.453Z,38.20
2018-07-31T11:57:03.711Z,37.58
2018-07-31T11:59:33.107Z,37.35
2018-07-31T12:02:02.618Z,37.08
2018-07-31T12:04:31.643Z,37.52
2018-07-31T12:07:00.750Z,36.51
2018-07-31T12:09:29.899Z,37.24
2018-07-31T12:11:59.127Z,36.53
2018-07-31T12:14:30.037Z,37.37
2018-07-31T12:16:58.886Z,35.66
2018-07-31T12:19:27.873Z,35.78
2018-07-31T12:21:56.814Z,36.57
2018-07-31T12:24:25.871Z,36.64
2018-07-31T12:26:56.019Z,36.49
2018-07-31T12:29:27.353Z,36.48
2018-07-31T12:31:58.760Z,37.41
2018-07-31T12:34:29.081Z,38.72
2018-07-31T12:36:59.569Z,37.89
2018-07-31T12:39:29.878Z,37.84
2018-07-31T12:42:00.946Z,36.10
2018-07-31T12:44:30.834Z,36.33
2018-07-31T12:47:00.282Z,37.34
2018-07-31T12:49:30.762Z,37.61
2018-07-31T12:52:02.779Z,36.13
2018-07-31T12:54:31.786Z,36.54
2018-07-31T12:57:00.795Z,36.34
2018-07-31T12:59:30.531Z,36.95
2018-07-31T13:02:00.890Z,37.00
2018-07-31T13:04:31.177Z,35.96
2018-07-31T13:07:01.824Z,35.68
2018-07-31T13:09:31.174Z,35.69
2018-07-31T13:12:00.746Z,36.51
2018-07-31T13:14:29.854Z,35.88
2018-07-31T13:17:00.834Z,35.89
2018-07-31T13:19:30.348Z,36.45
2018-07-31T13:21:59.660Z,36.52
2018-07-31T13:24:29.767Z,36.10
2018-07-31T13:27:01.293Z,36.68
2018-07-31T13:29:31.466Z,36.19
2018-07-31T13:32:01.169Z,35.21
2018-07-31T13:34:31.617Z,35.35
2018-07-31T13:37:01.052Z,35.39
2018-07-31T13:39:31.154Z,35.38
2018-07-31T13:42:01.001Z,35.81
2018-07-31T13:44:30.030Z,35.54
2018-07-31T13:46:59.257Z,35.25
2018-07-31T13:49:28.804Z,34.97
2018-07-31T13:51:58.973Z,35.87
2018-07-31T13:54:29.479Z,35.73
2018-07-31T13:56:59.385Z,35.64
2018-07-31T13:59:29.600Z,35.62
2018-07-31T14:01:59.726Z,35.07
2018-07-31T14:04:28.996Z,35.45
2018-07-31T14:06:58.716Z,35.23
2018-07-31T14:09:28.571Z,35.07
2018-07-31T14:11:57.639Z,36.00
2018-07-31T14:14:26.737Z,35.64
2018-07-31T14:16:57.616Z,35.54
2018-07-31T14:19:27.067Z,35.45
2018-07-31T14:21:58.212Z,35.72
2018-07-31T14:24:27.744Z,34.57
2018-07-31T14:26:56.668Z,34.32
2018-07-31T14:29:25.196Z,33.99
2018-07-31T14:31:59.222Z,34.42
2018-07-31T14:34:28.852Z,34.50
2018-07-31T14:36:58.184Z,34.72
2018-07-31T14:39:28.276Z,34.94
2018-07-31T14:41:57.457Z,34.77
2018-07-31T14:44:28.956Z,34.51
2018-07-31T14:47:03.954Z,34.45
2018-07-31T14:49:36.283Z,34.20
2018-07-31T14:52:09.888Z,34.27
2018-07-31T14:54:39.735Z,34.11
2018-07-31T14:57:11.904Z,34.15
2018-07-31T14:59:42.798Z,34.15
2018-07-31T15:02:13.226Z,33.79
2018-07-31T15:04:42.850Z,33.70
2018-07-31T15:07:13.333Z,33.53
2018-07-31T15:09:43.626Z,33.74
2018-07-31T15:12:13.184Z,33.79
2018-07-31T15:14:42.444Z,33.77
2018-07-31T15:17:12.798Z,33.66
2018-07-31T15:19:42.120Z,33.15
2018-07-31T15:22:11.241Z,33.64
2018-07-31T15:24:41.042Z,33.79
2018-07-31T15:27:10.426Z,33.36
2018-07-31T15:29:39.329Z,33.50
2018-07-31T15:32:08.288Z,33.41
2018-07-31T15:34:37.094Z,33.56
2018-07-31T15:37:06.092Z,33.18
2018-07-31T15:39:35.402Z,33.17
2018-07-31T15:42:04.808Z,33.27
2018-07-31T15:44:34.055Z,33.36
2018-07-31T15:47:03.378Z,33.02
2018-07-31T15:49:32.176Z,32.89
2018-07-31T15:52:00.896Z,33.16
2018-07-31T15:54:29.628Z,32.84
2018-07-31T15:56:59.236Z,32.73
2018-07-31T15:59:28.957Z,32.60
2018-07-31T16:01:57.955Z,32.89
2018-07-31T16:04:26.931Z,32.78
2018-07-31T16:06:55.842Z,32.77
2018-07-31T16:09:24.581Z,33.19
2018-07-31T16:11:53.699Z,33.30
2018-07-31T16:14:23.639Z,33.21
2018-07-31T16:16:52.884Z,32.93
2018-07-31T16:19:22.683Z,33.07
2018-07-31T16:21:52.169Z,33.08
2018-07-31T16:24:21.939Z,32.95
2018-07-31T16:26:51.694Z,32.71
2018-07-31T16:29:21.199Z,32.97
2018-07-31T16:31:50.064Z,33.00
2018-07-31T16:34:19.580Z,32.99
2018-07-31T16:36:51.032Z,32.99
2018-07-31T16:39:20.331Z,32.88
2018-07-31T16:41:49.890Z,32.66
2018-07-31T16:44:19.156Z,32.56
2018-07-31T16:46:49.731Z,32.63
2018-07-31T16:49:18.161Z,32.47
2018-07-31T16:51:48.107Z,32.59
2018-07-31T16:54:18.700Z,32.71
2018-07-31T16:56:47.796Z,32.51
2018-07-31T16:59:16.946Z,32.45
2018-07-31T17:01:47.952Z,32.27
2018-07-31T17:04:16.707Z,32.37
2018-07-31T17:06:46.516Z,32.30
2018-07-31T17:09:15.249Z,32.28
2018-07-31T17:11:45.998Z,32.25
2018-07-31T17:14:15.596Z,32.20
2018-07-31T17:16:44.391Z,31.94
2018-07-31T17:19:13.146Z,32.08
2018-07-31T17:21:41.886Z,31.90
2018-07-31T17:24:11.188Z,31.97
2018-07-31T17:26:40.877Z,31.89
2018-07-31T17:29:09.954Z,31.74
2018-07-31T17:31:39.566Z,31.57
2018-07-31T17:34:09.383Z,31.61
2018-07-31T17:36:39.008Z,31.68
2018-07-31T17:39:09.740Z,31.58
2018-07-31T17:41:40.175Z,31.60
2018-07-31T17:44:10.837Z,31.53
2018-07-31T17:46:39.632Z,31.34
2018-07-31T17:49:09.396Z,31.42
2018-07-31T17:51:39.498Z,31.26
2018-07-31T17:54:10.297Z,31.18
2018-07-31T17:56:39.257Z,31.18
2018-07-31T17:59:08.582Z,31.10
2018-07-31T18:01:39.115Z,30.98
2018-07-31T18:04:08.491Z,30.81
2018-07-31T18:06:37.150Z,30.72
2018-07-31T18:09:09.427Z,30.58
2018-07-31T18:11:40.166Z,30.54
2018-07-31T18:14:09.757Z,30.30
2018-07-31T18:16:39.294Z,30.27
2018-07-31T18:19:08.690Z,30.09
2018-07-31T18:21:37.710Z,30.00
2018-07-31T18:24:07.113Z,29.80
2018-07-31T18:26:35.980Z,29.81
2018-07-31T18:29:05.255Z,29.66
2018-07-31T18:31:35.188Z,29.55
2018-07-31T18:34:04.328Z,29.33
2018-07-31T18:36:34.808Z,29.02
2018-07-31T18:39:05.250Z,29.04
2018-07-31T18:41:40.126Z,28.83
2018-07-31T18:44:10.151Z,28.74
2018-07-31T18:46:41.621Z,28.45
2018-07-31T18:49:10.761Z,28.43
2018-07-31T18:51:42.288Z,28.30
2018-07-31T18:54:11.652Z,28.22
2018-07-31T18:56:40.914Z,28.12
2018-07-31T18:59:10.102Z,28.12
2018-07-31T19:01:39.918Z,27.84
2018-07-31T19:04:09.096Z,27.89
2018-07-31T19:06:38.770Z,27.88
2018-07-31T19:09:12.492Z,27.62
2018-07-31T19:11:43.224Z,27.49
2018-07-31T19:14:12.770Z,27.46
2018-07-31T19:16:43.334Z,27.32
2018-07-31T19:19:13.425Z,27.00
2018-07-31T19:21:45.319Z,27.09
2018-07-31T19:24:15.567Z,26.89
2018-07-31T19:26:46.161Z,26.58
2018-07-31T19:29:15.556Z,26.15
2018-07-31T19:31:49.470Z,25.99
2018-07-31T19:34:20.480Z,25.81
2018-07-31T19:36:51.435Z,25.68
2018-07-31T19:39:20.672Z,25.52
2018-07-31T19:41:51.025Z,25.55
2018-07-31T19:44:20.171Z,25.36
2018-07-31T19:46:49.793Z,25.42
2018-07-31T19:49:18.623Z,25.24
2018-07-31T19:51:47.311Z,25.31
2018-07-31T19:54:18.974Z,25.34
2018-07-31T19:56:48.089Z,25.17
2018-07-31T19:59:17.318Z,25.26
2018-07-31T20:01:47.323Z,25.11
2018-07-31T20:04:16.549Z,25.03
2018-07-31T20:06:47.225Z,24.90
2018-07-31T20:09:23.346Z,24.87
2018-07-31T20:11:52.284Z,24.86
2018-07-31T20:14:21.937Z,24.76
2018-07-31T20:16:51.677Z,24.84
2018-07-31T20:19:21.228Z,24.56
2018-07-31T20:21:50.867Z,24.60
2018-07-31T20:24:20.292Z,24.59
2018-07-31T20:26:49.449Z,24.45
2018-07-31T20:29:20.242Z,24.40
2018-07-31T20:31:49.367Z,24.48
2018-07-31T20:34:18.184Z,24.42
2018-07-31T20:36:49.493Z,24.26
2018-07-31T20:39:18.854Z,24.14
2018-07-31T20:41:48.244Z,24.16
2018-07-31T20:44:16.998Z,24.23
2018-07-31T20:46:46.220Z,23.98
2018-07-31T20:49:15.395Z,23.96
2018-07-31T20:51:45.528Z,24.00
2018-07-31T20:54:14.119Z,23.77
2018-07-31T20:56:42.659Z,23.82
2018-07-31T20:59:12.423Z,23.69
2018-07-31T21:01:41.551Z,23.66
2018-07-31T21:04:10.491Z,23.50
2018-07-31T21:06:40.223Z,23.48
2018-07-31T21:09:11.663Z,23.44
2018-07-31T21:11:41.179Z,23.44
2018-07-31T21:14:11.555Z,23.32
2018-07-31T21:16:40.664Z,23.25
2018-07-31T21:19:11.272Z,23.18
2018-07-31T21:21:41.861Z,22.92
2018-07-31T21:24:10.839Z,22.89
2018-07-31T21:26:40.298Z,22.97
2018-07-31T21:29:09.263Z,22.93
2018-07-31T21:31:37.922Z,23.17
2018-07-31T21:34:07.075Z,23.00
2018-07-31T21:36:36.376Z,22.90
2018-07-31T21:39:08.910Z,23.02
2018-07-31T21:41:37.876Z,23.03
2018-07-31T21:44:06.728Z,23.20
2018-07-31T21:46:36.160Z,23.24
2018-07-31T21:49:05.374Z,23.14
2018-07-31T21:51:34.581Z,23.21
2018-07-31T21:54:04.563Z,23.17
2018-07-31T21:56:33.373Z,22.83
2018-07-31T21:59:03.716Z,22.87
2018-07-31T22:01:35.387Z,22.71
2018-07-31T22:04:04.083Z,22.52
2018-07-31T22:06:32.589Z,22.38
2018-07-31T22:09:02.643Z,22.56
2018-07-31T22:11:35.840Z,22.55
2018-07-31T22:14:04.810Z,22.53
2018-07-31T22:16:34.797Z,22.35
2018-07-31T22:19:03.527Z,22.29
2018-07-31T22:21:33.313Z,22.10
2018-07-31T22:24:02.799Z,22.18
2018-07-31T22:26:31.524Z,22.14
2018-07-31T22:29:00.102Z,21.98
2018-07-31T22:31:28.628Z,22.23
2018-07-31T22:33:58.092Z,22.18
2018-07-31T22:36:27.837Z,22.17
2018-07-31T22:38:57.227Z,22.14
2018-07-31T22:41:26.037Z,22.14
2018-07-31T22:43:54.872Z,21.99
2018-07-31T22:46:24.015Z,22.14
2018-07-31T22:48:52.729Z,22.25
2018-07-31T22:51:21.815Z,22.18
2018-07-31T22:53:50.756Z,22.17
2018-07-31T22:56:19.395Z,22.21
2018-07-31T22:58:48.133Z,22.08
2018-07-31T23:01:16.659Z,22.03
2018-07-31T23:03:46.130Z,21.87
2018-07-31T23:06:15.900Z,21.86
2018-07-31T23:08:44.789Z,21.92
2018-07-31T23:11:14.303Z,21.96
2018-07-31T23:13:42.916Z,21.93
2018-07-31T23:16:11.755Z,21.88
2018-07-31T23:18:40.809Z,21.90
2018-07-31T23:21:09.383Z,21.89
2018-07-31T23:23:38.245Z,21.84
2018-07-31T23:26:07.394Z,21.77
2018-07-31T23:28:35.945Z,21.77
2018-07-31T23:31:04.399Z,21.88
2018-07-31T23:33:35.335Z,21.94
2018-07-31T23:36:04.633Z,21.93
2018-07-31T23:38:34.987Z,21.93
2018-07-31T23:41:04.467Z,21.95
2018-07-31T23:44:36.076Z,21.91
2018-07-31T23:47:05.083Z,21.62
2018-07-31T23:49:34.234Z,21.57
2018-07-31T23:52:04.511Z,21.90
2018-07-31T23:54:34.740Z,21.63
2018-07-31T23:57:04.869Z,21.60
2018-07-31T23:59:34.199Z,21.38
